sensor_id;sensor_type;location;lat;lon;timestamp;temperature;humidity
68274;SHT30;55104;47.356;19.448;2023-05-13T00:00:07;10.77;97.85
68274;SHT30;55104;47.356;19.448;2023-05-13T00:03:10;10.68;97.91
68274;SHT30;55104;47.356;19.448;2023-05-13T00:06:13;10.67;98.09
68274;SHT30;55104;47.356;19.448;2023-05-13T00:09:15;10.63;97.72
68274;SHT30;55104;47.356;19.448;2023-05-13T00:12:17;10.60;97.78
68274;SHT30;55104;47.356;19.448;2023-05-13T00:15:19;10.60;97.91
68274;SHT30;55104;47.356;19.448;2023-05-13T00:18:21;10.60;98.10
68274;SHT30;55104;47.356;19.448;2023-05-13T00:21:23;10.57;97.67
68274;SHT30;55104;47.356;19.448;2023-05-13T00:24:25;10.57;97.60
68274;SHT30;55104;47.356;19.448;2023-05-13T00:27:28;10.52;97.52
68274;SHT30;55104;47.356;19.448;2023-05-13T00:30:30;10.52;97.72
68274;SHT30;55104;47.356;19.448;2023-05-13T00:33:32;10.57;97.90
68274;SHT30;55104;47.356;19.448;2023-05-13T00:36:34;10.49;97.65
68274;SHT30;55104;47.356;19.448;2023-05-13T00:39:36;10.50;97.42
68274;SHT30;55104;47.356;19.448;2023-05-13T00:42:38;10.35;97.45
68274;SHT30;55104;47.356;19.448;2023-05-13T00:45:40;10.31;97.78
68274;SHT30;55104;47.356;19.448;2023-05-13T00:48:42;10.32;97.72
68274;SHT30;55104;47.356;19.448;2023-05-13T00:51:44;10.35;97.84
68274;SHT30;55104;47.356;19.448;2023-05-13T00:54:46;10.35;97.67
68274;SHT30;55104;47.356;19.448;2023-05-13T00:57:48;10.36;97.79
68274;SHT30;55104;47.356;19.448;2023-05-13T01:01:11;10.26;97.85
68274;SHT30;55104;47.356;19.448;2023-05-13T01:04:30;10.22;97.97
68274;SHT30;55104;47.356;19.448;2023-05-13T01:10:40;10.16;98.04
68274;SHT30;55104;47.356;19.448;2023-05-13T01:13:45;10.16;98.07
68274;SHT30;55104;47.356;19.448;2023-05-13T01:16:53;10.09;97.80
68274;SHT30;55104;47.356;19.448;2023-05-13T01:19:57;10.09;98.06
68274;SHT30;55104;47.356;19.448;2023-05-13T01:23:01;10.06;98.20
68274;SHT30;55104;47.356;19.448;2023-05-13T01:26:04;10.11;98.06
68274;SHT30;55104;47.356;19.448;2023-05-13T01:29:07;10.09;97.95
68274;SHT30;55104;47.356;19.448;2023-05-13T01:32:10;10.01;97.76
68274;SHT30;55104;47.356;19.448;2023-05-13T01:35:14;10.04;97.70
68274;SHT30;55104;47.356;19.448;2023-05-13T01:38:19;10.06;97.62
68274;SHT30;55104;47.356;19.448;2023-05-13T01:41:27;10.05;97.54
68274;SHT30;55104;47.356;19.448;2023-05-13T01:44:29;10.05;97.71
68274;SHT30;55104;47.356;19.448;2023-05-13T01:47:31;10.04;97.70
68274;SHT30;55104;47.356;19.448;2023-05-13T01:50:33;10.11;97.53
68274;SHT30;55104;47.356;19.448;2023-05-13T01:53:36;10.06;97.35
68274;SHT30;55104;47.356;19.448;2023-05-13T01:56:39;10.05;97.22
68274;SHT30;55104;47.356;19.448;2023-05-13T01:59:41;10.04;97.19
68274;SHT30;55104;47.356;19.448;2023-05-13T02:02:43;10.01;97.35
68274;SHT30;55104;47.356;19.448;2023-05-13T02:05:45;9.94;97.18
68274;SHT30;55104;47.356;19.448;2023-05-13T02:08:49;9.91;97.34
68274;SHT30;55104;47.356;19.448;2023-05-13T02:11:51;9.87;97.46
68274;SHT30;55104;47.356;19.448;2023-05-13T02:14:53;9.85;97.50
68274;SHT30;55104;47.356;19.448;2023-05-13T02:17:56;9.87;97.88
68274;SHT30;55104;47.356;19.448;2023-05-13T02:20:58;9.94;97.80
68274;SHT30;55104;47.356;19.448;2023-05-13T02:24:01;9.90;97.68
68274;SHT30;55104;47.356;19.448;2023-05-13T02:27:04;9.90;97.92
68274;SHT30;55104;47.356;19.448;2023-05-13T02:30:06;9.90;97.60
68274;SHT30;55104;47.356;19.448;2023-05-13T02:33:09;9.93;97.75
68274;SHT30;55104;47.356;19.448;2023-05-13T02:36:11;9.88;98.12
68274;SHT30;55104;47.356;19.448;2023-05-13T02:39:13;9.81;98.21
68274;SHT30;55104;47.356;19.448;2023-05-13T02:42:15;9.85;98.33
68274;SHT30;55104;47.356;19.448;2023-05-13T02:45:17;9.87;98.11
68274;SHT30;55104;47.356;19.448;2023-05-13T02:48:25;9.85;97.98
68274;SHT30;55104;47.356;19.448;2023-05-13T02:51:27;9.93;98.23
68274;SHT30;55104;47.356;19.448;2023-05-13T02:54:29;9.90;98.16
68274;SHT30;55104;47.356;19.448;2023-05-13T02:57:31;9.87;98.04
68274;SHT30;55104;47.356;19.448;2023-05-13T03:00:34;9.87;98.14
68274;SHT30;55104;47.356;19.448;2023-05-13T03:03:36;9.88;97.99
68274;SHT30;55104;47.356;19.448;2023-05-13T03:06:38;9.85;97.71
68274;SHT30;55104;47.356;19.448;2023-05-13T03:09:40;9.81;97.88
68274;SHT30;55104;47.356;19.448;2023-05-13T03:12:43;9.83;97.85
68274;SHT30;55104;47.356;19.448;2023-05-13T03:15:45;9.77;98.12
68274;SHT30;55104;47.356;19.448;2023-05-13T03:18:47;9.71;98.30
68274;SHT30;55104;47.356;19.448;2023-05-13T03:21:50;9.76;98.36
68274;SHT30;55104;47.356;19.448;2023-05-13T03:24:53;9.73;98.48
68274;SHT30;55104;47.356;19.448;2023-05-13T03:27:58;9.73;98.42
68274;SHT30;55104;47.356;19.448;2023-05-13T03:31:04;9.74;98.62
68274;SHT30;55104;47.356;19.448;2023-05-13T03:34:10;9.85;98.30
68274;SHT30;55104;47.356;19.448;2023-05-13T03:37:14;9.84;98.04
68274;SHT30;55104;47.356;19.448;2023-05-13T03:40:16;9.85;98.01
68274;SHT30;55104;47.356;19.448;2023-05-13T03:43:18;9.85;98.12
68274;SHT30;55104;47.356;19.448;2023-05-13T03:46:27;9.91;98.45
68274;SHT30;55104;47.356;19.448;2023-05-13T03:49:29;9.93;98.23
68274;SHT30;55104;47.356;19.448;2023-05-13T03:52:32;9.88;98.31
68274;SHT30;55104;47.356;19.448;2023-05-13T03:55:34;9.84;98.43
68274;SHT30;55104;47.356;19.448;2023-05-13T03:58:36;9.90;98.62
68274;SHT30;55104;47.356;19.448;2023-05-13T04:01:38;9.85;98.74
68274;SHT30;55104;47.356;19.448;2023-05-13T04:04:40;9.83;98.86
68274;SHT30;55104;47.356;19.448;2023-05-13T04:07:42;9.83;98.88
68274;SHT30;55104;47.356;19.448;2023-05-13T04:10:44;9.81;98.73
68274;SHT30;55104;47.356;19.448;2023-05-13T04:13:46;9.83;99.06
68274;SHT30;55104;47.356;19.448;2023-05-13T04:16:49;9.84;99.11
68274;SHT30;55104;47.356;19.448;2023-05-13T04:19:52;9.90;99.20
68274;SHT30;55104;47.356;19.448;2023-05-13T04:22:54;9.85;99.15
68274;SHT30;55104;47.356;19.448;2023-05-13T04:25:56;9.88;99.28
68274;SHT30;55104;47.356;19.448;2023-05-13T04:28:58;9.91;99.09
68274;SHT30;55104;47.356;19.448;2023-05-13T04:32:00;9.84;99.44
68274;SHT30;55104;47.356;19.448;2023-05-13T04:35:03;9.87;99.35
68274;SHT30;55104;47.356;19.448;2023-05-13T04:38:06;9.95;99.38
68274;SHT30;55104;47.356;19.448;2023-05-13T04:41:09;9.97;99.12
68274;SHT30;55104;47.356;19.448;2023-05-13T04:44:15;10.01;99.14
68274;SHT30;55104;47.356;19.448;2023-05-13T04:47:18;10.11;99.12
68274;SHT30;55104;47.356;19.448;2023-05-13T04:50:20;10.11;98.70
68274;SHT30;55104;47.356;19.448;2023-05-13T04:53:23;10.15;98.37
68274;SHT30;55104;47.356;19.448;2023-05-13T04:56:27;10.16;98.38
68274;SHT30;55104;47.356;19.448;2023-05-13T04:59:29;10.19;98.82
68274;SHT30;55104;47.356;19.448;2023-05-13T05:02:31;10.18;98.86
68274;SHT30;55104;47.356;19.448;2023-05-13T05:05:34;10.23;98.97
68274;SHT30;55104;47.356;19.448;2023-05-13T05:08:36;10.29;98.88
68274;SHT30;55104;47.356;19.448;2023-05-13T05:11:39;10.19;98.79
68274;SHT30;55104;47.356;19.448;2023-05-13T05:14:41;10.08;98.68
68274;SHT30;55104;47.356;19.448;2023-05-13T05:17:43;10.13;98.96
68274;SHT30;55104;47.356;19.448;2023-05-13T05:20:46;10.08;99.19
68274;SHT30;55104;47.356;19.448;2023-05-13T05:23:51;10.05;99.59
68274;SHT30;55104;47.356;19.448;2023-05-13T05:26:53;10.12;99.44
68274;SHT30;55104;47.356;19.448;2023-05-13T05:29:55;10.22;99.47
68274;SHT30;55104;47.356;19.448;2023-05-13T05:32:58;10.29;99.46
68274;SHT30;55104;47.356;19.448;2023-05-13T05:36:00;10.38;98.95
68274;SHT30;55104;47.356;19.448;2023-05-13T05:39:03;10.36;98.82
68274;SHT30;55104;47.356;19.448;2023-05-13T05:42:07;10.48;98.87
68274;SHT30;55104;47.356;19.448;2023-05-13T05:45:09;10.52;98.82
68274;SHT30;55104;47.356;19.448;2023-05-13T05:48:12;10.50;98.53
68274;SHT30;55104;47.356;19.448;2023-05-13T05:51:14;10.57;98.17
68274;SHT30;55104;47.356;19.448;2023-05-13T05:54:17;10.57;97.92
68274;SHT30;55104;47.356;19.448;2023-05-13T05:57:19;10.57;97.61
68274;SHT30;55104;47.356;19.448;2023-05-13T06:00:22;10.71;97.90
68274;SHT30;55104;47.356;19.448;2023-05-13T06:03:25;10.71;97.63
68274;SHT30;55104;47.356;19.448;2023-05-13T06:06:27;10.78;97.29
68274;SHT30;55104;47.356;19.448;2023-05-13T06:09:29;10.87;97.20
68274;SHT30;55104;47.356;19.448;2023-05-13T06:12:32;10.91;96.91
68274;SHT30;55104;47.356;19.448;2023-05-13T06:15:37;10.94;96.69
68274;SHT30;55104;47.356;19.448;2023-05-13T06:18:39;10.84;96.89
68274;SHT30;55104;47.356;19.448;2023-05-13T06:21:41;10.91;96.60
68274;SHT30;55104;47.356;19.448;2023-05-13T06:24:43;10.97;96.46
68274;SHT30;55104;47.356;19.448;2023-05-13T06:27:47;10.98;96.58
68274;SHT30;55104;47.356;19.448;2023-05-13T06:30:52;11.12;96.44
68274;SHT30;55104;47.356;19.448;2023-05-13T06:33:55;11.07;95.74
68274;SHT30;55104;47.356;19.448;2023-05-13T06:36:58;11.15;95.86
68274;SHT30;55104;47.356;19.448;2023-05-13T06:40:00;11.16;95.52
68274;SHT30;55104;47.356;19.448;2023-05-13T06:43:03;11.14;95.45
68274;SHT30;55104;47.356;19.448;2023-05-13T06:46:11;11.07;95.64
68274;SHT30;55104;47.356;19.448;2023-05-13T06:49:13;11.15;96.14
68274;SHT30;55104;47.356;19.448;2023-05-13T06:52:15;11.11;96.22
68274;SHT30;55104;47.356;19.448;2023-05-13T06:55:17;11.21;96.61
68274;SHT30;55104;47.356;19.448;2023-05-13T06:58:20;11.03;95.99
68274;SHT30;55104;47.356;19.448;2023-05-13T07:01:22;11.21;95.77
68274;SHT30;55104;47.356;19.448;2023-05-13T07:04:24;11.38;95.24
68274;SHT30;55104;47.356;19.448;2023-05-13T07:07:26;11.19;95.09
68274;SHT30;55104;47.356;19.448;2023-05-13T07:10:28;11.25;95.15
68274;SHT30;55104;47.356;19.448;2023-05-13T07:13:30;11.26;94.44
68274;SHT30;55104;47.356;19.448;2023-05-13T07:16:34;11.22;95.34
68274;SHT30;55104;47.356;19.448;2023-05-13T07:19:36;11.43;94.90
68274;SHT30;55104;47.356;19.448;2023-05-13T07:22:38;11.47;94.25
68274;SHT30;55104;47.356;19.448;2023-05-13T07:25:40;11.59;93.68
68274;SHT30;55104;47.356;19.448;2023-05-13T07:28:43;11.77;93.44
68274;SHT30;55104;47.356;19.448;2023-05-13T07:31:45;11.74;93.12
68274;SHT30;55104;47.356;19.448;2023-05-13T07:34:47;11.81;93.08
68274;SHT30;55104;47.356;19.448;2023-05-13T07:37:49;12.02;93.13
68274;SHT30;55104;47.356;19.448;2023-05-13T07:40:51;11.90;92.41
68274;SHT30;55104;47.356;19.448;2023-05-13T07:43:53;12.13;92.43
68274;SHT30;55104;47.356;19.448;2023-05-13T07:46:55;12.36;91.10
68274;SHT30;55104;47.356;19.448;2023-05-13T07:49:57;12.39;91.12
68274;SHT30;55104;47.356;19.448;2023-05-13T07:52:59;12.48;91.40
68274;SHT30;55104;47.356;19.448;2023-05-13T07:56:02;12.66;90.25
68274;SHT30;55104;47.356;19.448;2023-05-13T07:59:04;12.66;89.88
68274;SHT30;55104;47.356;19.448;2023-05-13T08:02:06;12.72;89.80
68274;SHT30;55104;47.356;19.448;2023-05-13T08:05:09;12.77;89.64
68274;SHT30;55104;47.356;19.448;2023-05-13T08:08:11;12.81;89.34
68274;SHT30;55104;47.356;19.448;2023-05-13T08:11:13;12.86;88.78
68274;SHT30;55104;47.356;19.448;2023-05-13T08:14:16;12.80;88.74
68274;SHT30;55104;47.356;19.448;2023-05-13T08:17:17;12.96;89.27
68274;SHT30;55104;47.356;19.448;2023-05-13T08:20:20;12.93;88.07
68274;SHT30;55104;47.356;19.448;2023-05-13T08:23:23;12.93;87.49
68274;SHT30;55104;47.356;19.448;2023-05-13T08:26:45;12.73;87.46
68274;SHT30;55104;47.356;19.448;2023-05-13T08:29:47;12.83;87.69
68274;SHT30;55104;47.356;19.448;2023-05-13T08:32:49;12.98;87.85
68274;SHT30;55104;47.356;19.448;2023-05-13T08:35:51;13.11;86.78
68274;SHT30;55104;47.356;19.448;2023-05-13T08:38:54;13.46;86.59
68274;SHT30;55104;47.356;19.448;2023-05-13T08:41:56;13.63;86.09
68274;SHT30;55104;47.356;19.448;2023-05-13T08:45:02;13.71;84.29
68274;SHT30;55104;47.356;19.448;2023-05-13T08:48:06;14.17;84.68
68274;SHT30;55104;47.356;19.448;2023-05-13T08:51:10;13.97;84.24
68274;SHT30;55104;47.356;19.448;2023-05-13T08:54:13;13.94;83.44
68274;SHT30;55104;47.356;19.448;2023-05-13T08:57:17;13.96;82.15
68274;SHT30;55104;47.356;19.448;2023-05-13T09:00:19;13.74;81.87
68274;SHT30;55104;47.356;19.448;2023-05-13T09:03:22;13.65;82.62
68274;SHT30;55104;47.356;19.448;2023-05-13T09:06:25;13.87;83.19
68274;SHT30;55104;47.356;19.448;2023-05-13T09:09:27;14.32;81.65
68274;SHT30;55104;47.356;19.448;2023-05-13T09:12:45;14.39;78.93
68274;SHT30;55104;47.356;19.448;2023-05-13T09:15:49;14.81;80.94
68274;SHT30;55104;47.356;19.448;2023-05-13T09:19:17;15.04;79.86
68274;SHT30;55104;47.356;19.448;2023-05-13T09:22:19;14.84;79.53
68274;SHT30;55104;47.356;19.448;2023-05-13T09:25:22;14.63;80.34
68274;SHT30;55104;47.356;19.448;2023-05-13T09:28:27;14.94;80.63
68274;SHT30;55104;47.356;19.448;2023-05-13T09:31:32;15.17;79.07
68274;SHT30;55104;47.356;19.448;2023-05-13T09:34:34;15.06;79.05
68274;SHT30;55104;47.356;19.448;2023-05-13T09:37:36;14.90;79.82
68274;SHT30;55104;47.356;19.448;2023-05-13T09:40:39;15.00;79.26
68274;SHT30;55104;47.356;19.448;2023-05-13T09:43:41;14.75;81.47
68274;SHT30;55104;47.356;19.448;2023-05-13T09:46:43;14.38;80.67
68274;SHT30;55104;47.356;19.448;2023-05-13T09:49:55;14.32;82.05
68274;SHT30;55104;47.356;19.448;2023-05-13T09:53:09;14.32;81.88
68274;SHT30;55104;47.356;19.448;2023-05-13T09:56:11;14.26;80.70
68274;SHT30;55104;47.356;19.448;2023-05-13T09:59:14;14.29;81.49
68274;SHT30;55104;47.356;19.448;2023-05-13T10:02:17;14.46;80.80
68274;SHT30;55104;47.356;19.448;2023-05-13T10:05:20;14.61;80.77
68274;SHT30;55104;47.356;19.448;2023-05-13T10:08:23;14.69;80.59
68274;SHT30;55104;47.356;19.448;2023-05-13T10:11:28;15.12;78.94
68274;SHT30;55104;47.356;19.448;2023-05-13T10:14:31;15.59;78.72
68274;SHT30;55104;47.356;19.448;2023-05-13T10:17:34;15.66;77.95
68274;SHT30;55104;47.356;19.448;2023-05-13T10:20:37;15.53;76.90
68274;SHT30;55104;47.356;19.448;2023-05-13T10:23:40;16.29;76.71
68274;SHT30;55104;47.356;19.448;2023-05-13T10:26:42;16.40;75.60
68274;SHT30;55104;47.356;19.448;2023-05-13T10:29:45;16.01;75.40
68274;SHT30;55104;47.356;19.448;2023-05-13T10:32:47;15.48;77.07
68274;SHT30;55104;47.356;19.448;2023-05-13T10:36:05;15.45;77.67
68274;SHT30;55104;47.356;19.448;2023-05-13T10:39:21;15.62;77.12
68274;SHT30;55104;47.356;19.448;2023-05-13T10:42:34;15.70;74.94
68274;SHT30;55104;47.356;19.448;2023-05-13T10:45:37;15.49;76.55
68274;SHT30;55104;47.356;19.448;2023-05-13T10:48:47;15.79;76.51
68274;SHT30;55104;47.356;19.448;2023-05-13T10:51:50;15.72;75.88
68274;SHT30;55104;47.356;19.448;2023-05-13T10:55:00;15.90;76.21
68274;SHT30;55104;47.356;19.448;2023-05-13T10:58:06;15.21;78.37
68274;SHT30;55104;47.356;19.448;2023-05-13T11:04:19;14.34;80.45
68274;SHT30;55104;47.356;19.448;2023-05-13T11:07:21;14.68;79.66
68274;SHT30;55104;47.356;19.448;2023-05-13T11:10:27;15.46;80.35
68274;SHT30;55104;47.356;19.448;2023-05-13T11:13:36;15.65;77.36
68274;SHT30;55104;47.356;19.448;2023-05-13T11:16:44;16.11;76.65
68274;SHT30;55104;47.356;19.448;2023-05-13T11:19:49;16.29;75.92
68274;SHT30;55104;47.356;19.448;2023-05-13T11:22:51;16.31;75.30
68274;SHT30;55104;47.356;19.448;2023-05-13T11:26:10;15.78;76.88
68274;SHT30;55104;47.356;19.448;2023-05-13T11:29:13;15.63;76.53
68274;SHT30;55104;47.356;19.448;2023-05-13T11:35:58;14.89;79.87
68274;SHT30;55104;47.356;19.448;2023-05-13T11:42:15;14.89;80.39
68274;SHT30;55104;47.356;19.448;2023-05-13T11:45:19;14.98;79.81
68274;SHT30;55104;47.356;19.448;2023-05-13T11:48:23;15.32;79.33
68274;SHT30;55104;47.356;19.448;2023-05-13T11:51:25;15.44;77.49
68274;SHT30;55104;47.356;19.448;2023-05-13T11:54:27;15.11;78.04
68274;SHT30;55104;47.356;19.448;2023-05-13T11:57:29;15.31;78.24
68274;SHT30;55104;47.356;19.448;2023-05-13T12:00:34;15.42;77.93
68274;SHT30;55104;47.356;19.448;2023-05-13T12:03:36;15.16;78.12
68274;SHT30;55104;47.356;19.448;2023-05-13T12:06:44;15.07;78.41
68274;SHT30;55104;47.356;19.448;2023-05-13T12:09:47;15.49;76.95
68274;SHT30;55104;47.356;19.448;2023-05-13T12:12:50;15.78;77.01
68274;SHT30;55104;47.356;19.448;2023-05-13T12:15:52;15.83;76.27
68274;SHT30;55104;47.356;19.448;2023-05-13T12:19:04;15.99;77.35
68274;SHT30;55104;47.356;19.448;2023-05-13T12:22:07;15.93;74.10
68274;SHT30;55104;47.356;19.448;2023-05-13T12:28:39;16.16;73.93
68274;SHT30;55104;47.356;19.448;2023-05-13T12:31:42;16.37;75.25
68274;SHT30;55104;47.356;19.448;2023-05-13T12:34:47;16.24;75.58
68274;SHT30;55104;47.356;19.448;2023-05-13T12:38:03;16.00;74.90
68274;SHT30;55104;47.356;19.448;2023-05-13T12:41:11;15.78;76.67
68274;SHT30;55104;47.356;19.448;2023-05-13T12:44:16;15.67;78.17
68274;SHT30;55104;47.356;19.448;2023-05-13T12:47:18;16.01;76.79
68274;SHT30;55104;47.356;19.448;2023-05-13T12:50:21;15.73;74.84
68274;SHT30;55104;47.356;19.448;2023-05-13T12:53:23;15.94;75.58
68274;SHT30;55104;47.356;19.448;2023-05-13T12:56:26;15.70;76.02
68274;SHT30;55104;47.356;19.448;2023-05-13T12:59:28;15.53;75.59
68274;SHT30;55104;47.356;19.448;2023-05-13T13:02:33;15.24;76.69
68274;SHT30;55104;47.356;19.448;2023-05-13T13:05:35;15.51;74.73
68274;SHT30;55104;47.356;19.448;2023-05-13T13:08:37;15.48;75.60
68274;SHT30;55104;47.356;19.448;2023-05-13T13:11:39;16.04;75.17
68274;SHT30;55104;47.356;19.448;2023-05-13T13:14:41;16.25;73.90
68274;SHT30;55104;47.356;19.448;2023-05-13T13:17:43;16.28;74.13
68274;SHT30;55104;47.356;19.448;2023-05-13T13:20:46;16.45;74.55
68274;SHT30;55104;47.356;19.448;2023-05-13T13:23:48;16.63;74.12
68274;SHT30;55104;47.356;19.448;2023-05-13T13:26:50;16.27;74.95
68274;SHT30;55104;47.356;19.448;2023-05-13T13:29:54;16.11;76.71
68274;SHT30;55104;47.356;19.448;2023-05-13T13:32:56;15.79;76.67
68274;SHT30;55104;47.356;19.448;2023-05-13T13:35:58;16.21;76.10
68274;SHT30;55104;47.356;19.448;2023-05-13T13:39:00;16.03;75.93
68274;SHT30;55104;47.356;19.448;2023-05-13T13:42:02;15.90;76.11
68274;SHT30;55104;47.356;19.448;2023-05-13T13:45:05;15.82;76.10
68274;SHT30;55104;47.356;19.448;2023-05-13T13:48:07;15.89;75.80
68274;SHT30;55104;47.356;19.448;2023-05-13T13:51:10;15.86;75.75
68274;SHT30;55104;47.356;19.448;2023-05-13T13:54:11;15.82;76.19
68274;SHT30;55104;47.356;19.448;2023-05-13T13:57:14;15.63;76.29
68274;SHT30;55104;47.356;19.448;2023-05-13T14:00:17;15.56;76.76
68274;SHT30;55104;47.356;19.448;2023-05-13T14:03:19;15.41;77.49
68274;SHT30;55104;47.356;19.448;2023-05-13T14:06:22;15.25;78.49
68274;SHT30;55104;47.356;19.448;2023-05-13T14:09:24;15.45;78.10
68274;SHT30;55104;47.356;19.448;2023-05-13T14:12:26;15.36;78.08
68274;SHT30;55104;47.356;19.448;2023-05-13T14:15:28;15.38;77.47
68274;SHT30;55104;47.356;19.448;2023-05-13T14:18:31;15.53;78.25
68274;SHT30;55104;47.356;19.448;2023-05-13T14:21:33;15.58;78.39
68274;SHT30;55104;47.356;19.448;2023-05-13T14:24:35;15.48;78.04
68274;SHT30;55104;47.356;19.448;2023-05-13T14:27:37;15.32;77.47
68274;SHT30;55104;47.356;19.448;2023-05-13T14:30:39;15.27;79.30
68274;SHT30;55104;47.356;19.448;2023-05-13T14:33:41;15.49;79.48
68274;SHT30;55104;47.356;19.448;2023-05-13T14:36:43;15.62;78.25
68274;SHT30;55104;47.356;19.448;2023-05-13T14:39:45;15.65;78.17
68274;SHT30;55104;47.356;19.448;2023-05-13T14:42:50;15.56;77.88
68274;SHT30;55104;47.356;19.448;2023-05-13T14:45:52;15.38;78.82
68274;SHT30;55104;47.356;19.448;2023-05-13T14:48:54;15.20;79.05
68274;SHT30;55104;47.356;19.448;2023-05-13T14:51:56;15.21;79.04
68274;SHT30;55104;47.356;19.448;2023-05-13T14:54:58;15.07;78.69
68274;SHT30;55104;47.356;19.448;2023-05-13T14:58:01;15.10;79.80
68274;SHT30;55104;47.356;19.448;2023-05-13T15:01:04;15.00;78.42
68274;SHT30;55104;47.356;19.448;2023-05-13T15:04:06;15.08;78.35
68274;SHT30;55104;47.356;19.448;2023-05-13T15:07:08;15.10;78.53
68274;SHT30;55104;47.356;19.448;2023-05-13T15:10:10;15.16;79.09
68274;SHT30;55104;47.356;19.448;2023-05-13T15:13:12;15.23;79.06
68274;SHT30;55104;47.356;19.448;2023-05-13T15:16:14;14.87;79.55
68274;SHT30;55104;47.356;19.448;2023-05-13T15:19:19;14.89;79.54
68274;SHT30;55104;47.356;19.448;2023-05-13T15:22:21;14.90;79.11
68274;SHT30;55104;47.356;19.448;2023-05-13T15:25:23;14.90;79.44
68274;SHT30;55104;47.356;19.448;2023-05-13T15:28:25;15.01;78.78
68274;SHT30;55104;47.356;19.448;2023-05-13T15:31:29;14.98;79.28
68274;SHT30;55104;47.356;19.448;2023-05-13T15:34:33;14.89;80.26
68274;SHT30;55104;47.356;19.448;2023-05-13T15:37:35;14.87;80.73
68274;SHT30;55104;47.356;19.448;2023-05-13T15:40:37;15.00;80.93
68274;SHT30;55104;47.356;19.448;2023-05-13T15:43:39;14.93;79.97
68274;SHT30;55104;47.356;19.448;2023-05-13T15:46:41;14.94;80.14
68274;SHT30;55104;47.356;19.448;2023-05-13T15:49:43;14.84;79.77
68274;SHT30;55104;47.356;19.448;2023-05-13T15:52:45;14.80;79.96
68274;SHT30;55104;47.356;19.448;2023-05-13T15:55:48;14.69;80.28
68274;SHT30;55104;47.356;19.448;2023-05-13T15:58:50;14.77;79.75
68274;SHT30;55104;47.356;19.448;2023-05-13T16:01:52;14.80;79.82
68274;SHT30;55104;47.356;19.448;2023-05-13T16:04:55;14.72;80.46
68274;SHT30;55104;47.356;19.448;2023-05-13T16:07:57;14.76;80.64
68274;SHT30;55104;47.356;19.448;2023-05-13T16:10:59;14.86;80.68
68274;SHT30;55104;47.356;19.448;2023-05-13T16:14:01;14.89;80.83
68274;SHT30;55104;47.356;19.448;2023-05-13T16:17:03;14.79;80.33
68274;SHT30;55104;47.356;19.448;2023-05-13T16:20:05;14.79;80.83
68274;SHT30;55104;47.356;19.448;2023-05-13T16:23:10;14.72;81.46
68274;SHT30;55104;47.356;19.448;2023-05-13T16:26:12;14.75;80.87
68274;SHT30;55104;47.356;19.448;2023-05-13T16:29:14;14.61;80.80
68274;SHT30;55104;47.356;19.448;2023-05-13T16:32:17;14.61;80.61
68274;SHT30;55104;47.356;19.448;2023-05-13T16:35:19;14.63;80.22
68274;SHT30;55104;47.356;19.448;2023-05-13T16:38:22;14.53;80.03
68274;SHT30;55104;47.356;19.448;2023-05-13T16:41:24;14.58;80.37
68274;SHT30;55104;47.356;19.448;2023-05-13T16:44:26;14.55;80.33
68274;SHT30;55104;47.356;19.448;2023-05-13T16:47:28;14.56;79.72
68274;SHT30;55104;47.356;19.448;2023-05-13T16:50:30;14.58;80.14
68274;SHT30;55104;47.356;19.448;2023-05-13T16:53:32;14.55;81.33
68274;SHT30;55104;47.356;19.448;2023-05-13T16:56:34;14.51;81.12
68274;SHT30;55104;47.356;19.448;2023-05-13T16:59:37;14.36;81.86
68274;SHT30;55104;47.356;19.448;2023-05-13T17:02:39;14.25;82.59
68274;SHT30;55104;47.356;19.448;2023-05-13T17:05:41;14.28;82.23
68274;SHT30;55104;47.356;19.448;2023-05-13T17:08:43;14.28;82.44
68274;SHT30;55104;47.356;19.448;2023-05-13T17:11:45;14.22;82.35
68274;SHT30;55104;47.356;19.448;2023-05-13T17:14:47;14.22;82.19
68274;SHT30;55104;47.356;19.448;2023-05-13T17:17:49;14.15;82.30
68274;SHT30;55104;47.356;19.448;2023-05-13T17:20:51;14.13;82.05
68274;SHT30;55104;47.356;19.448;2023-05-13T17:23:53;13.98;82.55
68274;SHT30;55104;47.356;19.448;2023-05-13T17:26:55;13.94;82.92
68274;SHT30;55104;47.356;19.448;2023-05-13T17:29:57;13.84;83.34
68274;SHT30;55104;47.356;19.448;2023-05-13T17:32:59;13.73;83.71
68274;SHT30;55104;47.356;19.448;2023-05-13T17:36:02;13.67;84.00
68274;SHT30;55104;47.356;19.448;2023-05-13T17:39:04;13.55;84.72
68274;SHT30;55104;47.356;19.448;2023-05-13T17:42:06;13.43;85.16
68274;SHT30;55104;47.356;19.448;2023-05-13T17:45:08;13.41;85.28
68274;SHT30;55104;47.356;19.448;2023-05-13T17:48:10;13.31;85.48
68274;SHT30;55104;47.356;19.448;2023-05-13T17:51:13;13.29;85.45
68274;SHT30;55104;47.356;19.448;2023-05-13T17:54:15;13.16;85.59
68274;SHT30;55104;47.356;19.448;2023-05-13T17:57:17;13.07;86.17
68274;SHT30;55104;47.356;19.448;2023-05-13T18:00:19;12.98;86.42
68274;SHT30;55104;47.356;19.448;2023-05-13T18:03:21;12.97;86.66
68274;SHT30;55104;47.356;19.448;2023-05-13T18:06:23;12.96;86.57
68274;SHT30;55104;47.356;19.448;2023-05-13T18:09:25;12.97;86.67
68274;SHT30;55104;47.356;19.448;2023-05-13T18:12:28;12.91;86.74
68274;SHT30;55104;47.356;19.448;2023-05-13T18:15:30;12.83;87.06
68274;SHT30;55104;47.356;19.448;2023-05-13T18:18:32;12.70;87.37
68274;SHT30;55104;47.356;19.448;2023-05-13T18:21:34;12.76;87.50
68274;SHT30;55104;47.356;19.448;2023-05-13T18:24:37;12.70;87.45
68274;SHT30;55104;47.356;19.448;2023-05-13T18:27:39;12.63;87.91
68274;SHT30;55104;47.356;19.448;2023-05-13T18:30:41;12.60;88.02
68274;SHT30;55104;47.356;19.448;2023-05-13T18:33:43;12.57;88.10
68274;SHT30;55104;47.356;19.448;2023-05-13T18:36:45;12.55;88.03
68274;SHT30;55104;47.356;19.448;2023-05-13T18:39:47;12.55;88.12
68274;SHT30;55104;47.356;19.448;2023-05-13T18:42:49;12.50;88.27
68274;SHT30;55104;47.356;19.448;2023-05-13T18:45:51;12.48;88.41
68274;SHT30;55104;47.356;19.448;2023-05-13T18:48:56;12.41;88.78
68274;SHT30;55104;47.356;19.448;2023-05-13T18:51:59;12.33;88.89
68274;SHT30;55104;47.356;19.448;2023-05-13T18:55:02;12.26;89.42
68274;SHT30;55104;47.356;19.448;2023-05-13T18:58:08;12.24;89.70
68274;SHT30;55104;47.356;19.448;2023-05-13T19:01:12;12.17;89.54
68274;SHT30;55104;47.356;19.448;2023-05-13T19:04:16;12.08;90.13
68274;SHT30;55104;47.356;19.448;2023-05-13T19:07:21;12.02;90.54
68274;SHT30;55104;47.356;19.448;2023-05-13T19:10:23;12.01;90.70
68274;SHT30;55104;47.356;19.448;2023-05-13T19:13:26;11.98;90.47
68274;SHT30;55104;47.356;19.448;2023-05-13T19:16:47;11.97;90.66